Terminal Aerodrome Forecast
Issued by NWS Green Bay, WI

Home | Current Version | Previous Version | Text Only | Print | Product List | Glossary Off
Versions: 1 2 3 4 5 6 7 8 9 10 11 12 13 14 15 16 17 18 19 20 21 22 23 24 25 26 27 28 29

081
FTUS43 KGRB 181133
TAFGRB
TAF
KGRB 181133Z 1812/1912 27008KT P6SM SKC WS014/31030KT
     FM181600 27008KT P6SM FEW250
     FM190700 28003KT 6SM BR SCT150=

USA.gov is the U.S. government's official web portal to all federal, state and local government web resources and services.